Flugplatz Hannover

Bericht für EDDV

vom 17.08. um 06:20 UTC

Wind 6 kt aus 310°

Sichtweite 10 km oder mehr

gute Sicht, keine Wolken < 5000 ft, keine CB, keine Wettererscheinungen (CAVOK)

Temperatur 17.0°C

Taupunkt 15.0°C

Luftfeuchtigkeit 88%

Luftdruck 1016 hPa

keine wesentliche Wetteränderung innerhalb den nächsten 2 Stunden zu erwarten

EDDV 170620Z 31006KT CAVOK 17/15 Q1016 NOSIG

Prognose für EDDV

vom 17.08. um 05:00 UTC

Zwischen 06:00 UTC und 08:00 UTC

Wind 4 kt aus 320°

Sichtweite 10 km oder mehr

aufgelockert bewölkt in 3000 ft


Zwischen 08:00 und 10:00 UTC übergehend zu

Wind 10 kt aus 330°

Sichtweite 10 km oder mehr

aufgelockert bewölkt in 3000 ft


Zwischen 10:00 UTC und 15:00 UTC zeitweise mit einer Wahrscheinlichkeit von 30%

Regenschauer


Zwischen 16:00 und 18:00 UTC übergehend zu

Wind 5 kt aus 340°

Sichtweite 10 km oder mehr

aufgelockert bewölkt in 3000 ft


Zwischen 19:00 und 21:00 UTC übergehend zu

variable Windrichtung mit 2 kt

Sichtweite 10 km oder mehr

aufgelockert bewölkt in 3000 ft

TAF EDDV 170500Z 1706/1806 32004KT 9999 SCT030 BECMG 1708/1710 33010KT PROB30 TEMPO 1710/1715 SHRA BECMG 1716/1718 34005KT BECMG 1719/1721 VRB02KT
Impressum